PWSweather.com
Personal Weather Stations
Station Observations
KMNGREYC2
Grey Cloud Island, Grey Cloud Island, MN 55071

Grey Cloud IslandGrey Cloud Island, MN 55071

Lat: 44.799333, Lon: -92.987851

Elevation: 700

Station Type: Davis VP2

www.jagielski.com/weather/conditions.htm

High Low Average
Temperature 0.6°F-17.4°C -23.4°F-30.8°C -9.1°F-22.8°C
Dew Point -5.2°F-20.7°C -30.3°F-34.6°C -16.4°F-26.9°C
Winds 13.0 mph 20.9 kmh Calm Calm 4.0 mph W6.4 kmh W
Wind Gusts 25.0 mph40.2 kmh 3.0 mph4.8 kmh 13.0 mph20.9 kmh
Humidity 80% 60% 70%
Pressure 30.25 in1024.4 mb 29.95 in1014.2 mb -
Precipitation 0.00 in0.0 mm - -
Hour Temp Dew Point Humidity Winds Wind Gusts Pressure Precip Precip Rate Daily Precip Total
12:00 AM 2.3°F-16.5°C -3.5°F-19.7°C 76% Calm Calm 7.0 mph11.3 kmh 29.98 in1015.2 mb 0.00 in0.0 mm 0.00 in0.0 mm 0.00 in0.0 mm
12:15 AM 1.8°F-16.8°C -4.0°F-20.0°C 76% Calm Calm 8.0 mph12.9 kmh 29.98 in1015.2 mb 0.00 in0.0 mm 0.00 in0.0 mm 0.00 in0.0 mm
12:30 AM 1.3°F-17.1°C -4.5°F-20.3°C 76% 3.0 mph W4.8 kmh W 9.0 mph14.5 kmh 29.98 in1015.2 mb 0.00 in0.0 mm 0.00 in0.0 mm 0.00 in0.0 mm
12:45 AM 1.0°F-17.2°C -4.8°F-20.4°C 76% Calm Calm 6.0 mph9.7 kmh 29.98 in1015.2 mb 0.00 in0.0 mm 0.00 in0.0 mm 0.00 in0.0 mm
01:00 AM 0.6°F-17.4°C -5.2°F-20.7°C 76% Calm Calm 6.0 mph9.7 kmh 29.98 in1015.2 mb 0.00 in0.0 mm 0.00 in0.0 mm 0.00 in0.0 mm
01:15 AM 0.1°F-17.7°C -5.8°F-21.0°C 76% 2.0 mph W3.2 kmh W 8.0 mph12.9 kmh 29.97 in1014.9 mb 0.00 in0.0 mm 0.00 in0.0 mm 0.00 in0.0 mm
01:30 AM -0.5°F-18.1°C -6.0°F-21.1°C 77% 1.0 mph W1.6 kmh W 8.0 mph12.9 kmh 29.97 in1014.9 mb 0.00 in0.0 mm 0.00 in0.0 mm 0.00 in0.0 mm
01:45 AM -0.7°F-18.2°C -5.9°F-21.1°C 78% 2.0 mph W3.2 kmh W 5.0 mph8.0 kmh 29.97 in1014.9 mb 0.00 in0.0 mm 0.00 in0.0 mm 0.00 in0.0 mm
02:00 AM -1.1°F-18.4°C -6.3°F-21.3°C 78% 2.0 mph W3.2 kmh W 5.0 mph8.0 kmh 29.97 in1014.9 mb 0.00 in0.0 mm 0.00 in0.0 mm 0.00 in0.0 mm
02:15 AM -1.3°F-18.5°C -6.2°F-21.2°C 79% Calm Calm 7.0 mph11.3 kmh 29.96 in1014.6 mb 0.00 in0.0 mm 0.00 in0.0 mm 0.00 in0.0 mm
02:30 AM -1.5°F-18.6°C -6.2°F-21.2°C 80% 1.0 mph WNW1.6 kmh WNW 7.0 mph11.3 kmh 29.95 in1014.2 mb 0.00 in0.0 mm 0.00 in0.0 mm 0.00 in0.0 mm
02:45 AM -1.6°F-18.7°C -6.3°F-21.3°C 80% Calm Calm 3.0 mph4.8 kmh 29.95 in1014.2 mb 0.00 in0.0 mm 0.00 in0.0 mm 0.00 in0.0 mm
03:00 AM -1.7°F-18.7°C -6.4°F-21.3°C 80% 1.0 mph WNW1.6 kmh WNW 7.0 mph11.3 kmh 29.95 in1014.2 mb 0.00 in0.0 mm 0.00 in0.0 mm 0.00 in0.0 mm
03:15 AM -1.8°F-18.8°C -6.5°F-21.4°C 80% 4.0 mph NW6.4 kmh NW 6.0 mph9.7 kmh 29.95 in1014.2 mb 0.00 in0.0 mm 0.00 in0.0 mm 0.00 in0.0 mm
03:30 AM -1.9°F-18.8°C -6.6°F-21.4°C 80% 2.0 mph W3.2 kmh W 7.0 mph11.3 kmh 29.96 in1014.6 mb 0.00 in0.0 mm 0.00 in0.0 mm 0.00 in0.0 mm
03:45 AM -2.0°F-18.9°C -6.6°F-21.4°C 80% 6.0 mph W9.7 kmh W 13.0 mph20.9 kmh 29.96 in1014.6 mb 0.00 in0.0 mm 0.00 in0.0 mm 0.00 in0.0 mm
04:00 AM -2.1°F-18.9°C -7.0°F-21.7°C 79% Calm Calm 13.0 mph20.9 kmh 29.97 in1014.9 mb 0.00 in0.0 mm 0.00 in0.0 mm 0.00 in0.0 mm
04:15 AM -2.4°F-19.1°C -7.3°F-21.8°C 79% 1.0 mph WNW1.6 kmh WNW 10.0 mph16.1 kmh 29.97 in1014.9 mb 0.00 in0.0 mm 0.00 in0.0 mm 0.00 in0.0 mm
04:30 AM -2.7°F-19.3°C -7.6°F-22.0°C 79% 3.0 mph WNW4.8 kmh WNW 10.0 mph16.1 kmh 29.97 in1014.9 mb 0.00 in0.0 mm 0.00 in0.0 mm 0.00 in0.0 mm
04:45 AM -3.0°F-19.4°C -7.9°F-22.2°C 79% 2.0 mph WNW3.2 kmh WNW 7.0 mph11.3 kmh 29.97 in1014.9 mb 0.00 in0.0 mm 0.00 in0.0 mm 0.00 in0.0 mm
05:00 AM -3.4°F-19.7°C -8.3°F-22.4°C 79% 6.0 mph WNW9.7 kmh WNW 7.0 mph11.3 kmh 29.97 in1014.9 mb 0.00 in0.0 mm 0.00 in0.0 mm 0.00 in0.0 mm
05:15 AM -3.8°F-19.9°C -8.7°F-22.6°C 79% 2.0 mph WNW3.2 kmh WNW 8.0 mph12.9 kmh 29.97 in1014.9 mb 0.00 in0.0 mm 0.00 in0.0 mm 0.00 in0.0 mm
05:30 AM -4.0°F-20.0°C -8.9°F-22.7°C 79% 2.0 mph NW3.2 kmh NW 8.0 mph12.9 kmh 29.97 in1014.9 mb 0.00 in0.0 mm 0.00 in0.0 mm 0.00 in0.0 mm
05:45 AM -4.4°F-20.2°C -9.3°F-22.9°C 79% 5.0 mph WNW8.0 kmh WNW 8.0 mph12.9 kmh 29.97 in1014.9 mb 0.00 in0.0 mm 0.00 in0.0 mm 0.00 in0.0 mm
06:00 AM -4.5°F-20.3°C -9.6°F-23.1°C 78% 2.0 mph W3.2 kmh W 8.0 mph12.9 kmh 29.97 in1014.9 mb 0.00 in0.0 mm 0.00 in0.0 mm 0.00 in0.0 mm
06:15 AM -4.7°F-20.4°C -9.8°F-23.2°C 78% 1.0 mph NW1.6 kmh NW 13.0 mph20.9 kmh 29.97 in1014.9 mb 0.00 in0.0 mm 0.00 in0.0 mm 0.00 in0.0 mm
06:30 AM -4.9°F-20.5°C -10.0°F-23.3°C 78% 6.0 mph W9.7 kmh W 13.0 mph20.9 kmh 29.97 in1014.9 mb 0.00 in0.0 mm 0.00 in0.0 mm 0.00 in0.0 mm
06:45 AM -5.1°F-20.6°C -10.2°F-23.4°C 78% 6.0 mph NW9.7 kmh NW 7.0 mph11.3 kmh 29.97 in1014.9 mb 0.00 in0.0 mm 0.00 in0.0 mm 0.00 in0.0 mm
07:00 AM -5.4°F-20.8°C -10.7°F-23.7°C 77% 3.0 mph NW4.8 kmh NW 11.0 mph17.7 kmh 29.98 in1015.2 mb 0.00 in0.0 mm 0.00 in0.0 mm 0.00 in0.0 mm
07:15 AM -5.6°F-20.9°C -10.9°F-23.8°C 77% 4.0 mph W6.4 kmh W 11.0 mph17.7 kmh 29.98 in1015.2 mb 0.00 in0.0 mm 0.00 in0.0 mm 0.00 in0.0 mm
07:30 AM -5.9°F-21.1°C -11.2°F-24.0°C 77% 5.0 mph WNW8.0 kmh WNW 11.0 mph17.7 kmh 29.98 in1015.2 mb 0.00 in0.0 mm 0.00 in0.0 mm 0.00 in0.0 mm
07:45 AM -6.2°F-21.2°C -11.5°F-24.2°C 77% 1.0 mph WNW1.6 kmh WNW 12.0 mph19.3 kmh 29.99 in1015.6 mb 0.00 in0.0 mm 0.00 in0.0 mm 0.00 in0.0 mm
08:00 AM -6.4°F-21.3°C -11.7°F-24.3°C 77% 3.0 mph WNW4.8 kmh WNW 12.0 mph19.3 kmh 29.99 in1015.6 mb 0.00 in0.0 mm 0.00 in0.0 mm 0.00 in0.0 mm
08:15 AM -6.5°F-21.4°C -11.6°F-24.2°C 78% 3.0 mph WNW4.8 kmh WNW 8.0 mph12.9 kmh 29.99 in1015.6 mb 0.00 in0.0 mm 0.00 in0.0 mm 0.00 in0.0 mm
08:30 AM -6.7°F-21.5°C -11.8°F-24.3°C 78% 4.0 mph W6.4 kmh W 9.0 mph14.5 kmh 30.00 in1015.9 mb 0.00 in0.0 mm 0.00 in0.0 mm 0.00 in0.0 mm
08:45 AM -6.8°F-21.6°C -11.8°F-24.3°C 78% 2.0 mph W3.2 kmh W 7.0 mph11.3 kmh 30.00 in1015.9 mb 0.00 in0.0 mm 0.00 in0.0 mm 0.00 in0.0 mm
09:00 AM -6.8°F-21.6°C -12.1°F-24.5°C 77% 3.0 mph WNW4.8 kmh WNW 11.0 mph17.7 kmh 30.01 in1016.3 mb 0.00 in0.0 mm 0.00 in0.0 mm 0.00 in0.0 mm
09:15 AM -6.7°F-21.5°C -12.3°F-24.6°C 76% 2.0 mph WNW3.2 kmh WNW 11.0 mph17.7 kmh 30.01 in1016.3 mb 0.00 in0.0 mm 0.00 in0.0 mm 0.00 in0.0 mm
09:30 AM -6.7°F-21.5°C -12.5°F-24.7°C 75% 7.0 mph WNW11.3 kmh WNW 11.0 mph17.7 kmh 30.02 in1016.6 mb 0.00 in0.0 mm 0.00 in0.0 mm 0.00 in0.0 mm
09:45 AM -6.6°F-21.4°C -12.7°F-24.8°C 74% 4.0 mph W6.4 kmh W 11.0 mph17.7 kmh 30.02 in1016.6 mb 0.00 in0.0 mm 0.00 in0.0 mm 0.00 in0.0 mm
10:00 AM -6.3°F-21.3°C -12.4°F-24.7°C 74% 4.0 mph NNE6.4 kmh NNE 12.0 mph19.3 kmh 30.03 in1016.9 mb 0.00 in0.0 mm 0.00 in0.0 mm 0.00 in0.0 mm
10:15 AM -6.2°F-21.2°C -12.9°F-24.9°C 72% 2.0 mph NNW3.2 kmh NNW 10.0 mph16.1 kmh 30.04 in1017.3 mb 0.00 in0.0 mm 0.00 in0.0 mm 0.00 in0.0 mm
10:30 AM -5.9°F-21.1°C -13.1°F-25.1°C 70% 5.0 mph N8.0 kmh N 13.0 mph20.9 kmh 30.04 in1017.3 mb 0.00 in0.0 mm 0.00 in0.0 mm 0.00 in0.0 mm
10:45 AM -5.8°F-21.0°C -13.3°F-25.2°C 69% 4.0 mph NNW6.4 kmh NNW 10.0 mph16.1 kmh 30.04 in1017.3 mb 0.00 in0.0 mm 0.00 in0.0 mm 0.00 in0.0 mm
11:00 AM -5.5°F-20.8°C -13.3°F-25.2°C 68% 5.0 mph NE8.0 kmh NE 11.0 mph17.7 kmh 30.05 in1017.6 mb 0.00 in0.0 mm 0.00 in0.0 mm 0.00 in0.0 mm
11:15 AM -4.9°F-20.5°C -12.7°F-24.8°C 68% 2.0 mph NW3.2 kmh NW 15.0 mph24.1 kmh 30.05 in1017.6 mb 0.00 in0.0 mm 0.00 in0.0 mm 0.00 in0.0 mm
11:30 AM -4.2°F-20.1°C -12.4°F-24.7°C 67% 11.0 mph W17.7 kmh W 15.0 mph24.1 kmh 30.05 in1017.6 mb 0.00 in0.0 mm 0.00 in0.0 mm 0.00 in0.0 mm
11:45 AM -3.0°F-19.4°C -11.5°F-24.2°C 66% 4.0 mph NNE6.4 kmh NNE 17.0 mph27.4 kmh 30.06 in1017.9 mb 0.00 in0.0 mm 0.00 in0.0 mm 0.00 in0.0 mm
12:00 PM -2.1°F-18.9°C -11.3°F-24.1°C 64% 3.0 mph NE4.8 kmh NE 17.0 mph27.4 kmh 30.06 in1017.9 mb 0.00 in0.0 mm 0.00 in0.0 mm 0.00 in0.0 mm
12:15 PM -2.0°F-18.9°C -11.5°F-24.2°C 63% 5.0 mph NW8.0 kmh NW 12.0 mph19.3 kmh 30.07 in1018.3 mb 0.00 in0.0 mm 0.00 in0.0 mm 0.00 in0.0 mm
12:30 PM -2.1°F-18.9°C -11.9°F-24.4°C 62% Calm Calm 14.0 mph22.5 kmh 30.07 in1018.3 mb 0.00 in0.0 mm 0.00 in0.0 mm 0.00 in0.0 mm
12:45 PM -2.3°F-19.1°C -12.4°F-24.7°C 61% Calm Calm 18.0 mph29.0 kmh 30.06 in1017.9 mb 0.00 in0.0 mm 0.00 in0.0 mm 0.00 in0.0 mm
01:00 PM -2.7°F-19.3°C -12.8°F-24.9°C 61% 5.0 mph N8.0 kmh N 18.0 mph29.0 kmh 30.06 in1017.9 mb 0.00 in0.0 mm 0.00 in0.0 mm 0.00 in0.0 mm
01:15 PM -2.9°F-19.4°C -13.0°F-25.0°C 61% Calm Calm 11.0 mph17.7 kmh 30.06 in1017.9 mb 0.00 in0.0 mm 0.00 in0.0 mm 0.00 in0.0 mm
01:30 PM -3.3°F-19.6°C -13.4°F-25.2°C 61% 10.0 mph W16.1 kmh W 18.0 mph29.0 kmh 30.06 in1017.9 mb 0.00 in0.0 mm 0.00 in0.0 mm 0.00 in0.0 mm
01:45 PM -3.9°F-19.9°C -14.0°F-25.6°C 61% 2.0 mph W3.2 kmh W 16.0 mph25.7 kmh 30.06 in1017.9 mb 0.00 in0.0 mm 0.00 in0.0 mm 0.00 in0.0 mm
02:00 PM -3.7°F-19.8°C -13.4°F-25.2°C 62% 2.0 mph N3.2 kmh N 20.0 mph32.2 kmh 30.06 in1017.9 mb 0.00 in0.0 mm 0.00 in0.0 mm 0.00 in0.0 mm
02:15 PM -4.3°F-20.2°C -14.0°F-25.6°C 62% 10.0 mph NW16.1 kmh NW 20.0 mph32.2 kmh 30.06 in1017.9 mb 0.00 in0.0 mm 0.00 in0.0 mm 0.00 in0.0 mm
02:30 PM -5.0°F-20.6°C -15.0°F-26.1°C 61% 6.0 mph NW9.7 kmh NW 20.0 mph32.2 kmh 30.06 in1017.9 mb 0.00 in0.0 mm 0.00 in0.0 mm 0.00 in0.0 mm
02:45 PM -5.8°F-21.0°C -15.8°F-26.6°C 61% 3.0 mph NW4.8 kmh NW 18.0 mph29.0 kmh 30.06 in1017.9 mb 0.00 in0.0 mm 0.00 in0.0 mm 0.00 in0.0 mm
03:00 PM -6.5°F-21.4°C -16.1°F-26.7°C 62% 4.0 mph NNW6.4 kmh NNW 18.0 mph29.0 kmh 30.06 in1017.9 mb 0.00 in0.0 mm 0.00 in0.0 mm 0.00 in0.0 mm
03:15 PM -7.0°F-21.7°C -16.6°F-27.0°C 62% 2.0 mph SW3.2 kmh SW 16.0 mph25.7 kmh 30.06 in1017.9 mb 0.00 in0.0 mm 0.00 in0.0 mm 0.00 in0.0 mm
03:30 PM -7.6°F-22.0°C -17.2°F-27.3°C 62% 4.0 mph WNW6.4 kmh WNW 19.0 mph30.6 kmh 30.06 in1017.9 mb 0.00 in0.0 mm 0.00 in0.0 mm 0.00 in0.0 mm
03:45 PM -8.4°F-22.4°C -17.9°F-27.7°C 62% 6.0 mph WNW9.7 kmh WNW 22.0 mph35.4 kmh 30.06 in1017.9 mb 0.00 in0.0 mm 0.00 in0.0 mm 0.00 in0.0 mm
04:00 PM -8.9°F-22.7°C -18.4°F-28.0°C 62% 9.0 mph W14.5 kmh W 24.0 mph38.6 kmh 30.07 in1018.3 mb 0.00 in0.0 mm 0.00 in0.0 mm 0.00 in0.0 mm
04:15 PM -8.7°F-22.6°C -17.9°F-27.7°C 63% 3.0 mph NW4.8 kmh NW 19.0 mph30.6 kmh 30.07 in1018.3 mb 0.00 in0.0 mm 0.00 in0.0 mm 0.00 in0.0 mm
04:30 PM -9.1°F-22.8°C -18.9°F-28.3°C 61% 13.0 mph W20.9 kmh W 19.0 mph30.6 kmh 30.08 in1018.6 mb 0.00 in0.0 mm 0.00 in0.0 mm 0.00 in0.0 mm
04:45 PM -10.2°F-23.4°C -20.3°F-29.1°C 60% 10.0 mph WNW16.1 kmh WNW 19.0 mph30.6 kmh 30.08 in1018.6 mb 0.00 in0.0 mm 0.00 in0.0 mm 0.00 in0.0 mm
05:00 PM -11.0°F-23.9°C -20.4°F-29.1°C 62% 7.0 mph WNW11.3 kmh WNW 25.0 mph40.2 kmh 30.08 in1018.6 mb 0.00 in0.0 mm 0.00 in0.0 mm 0.00 in0.0 mm
05:15 PM -11.8°F-24.3°C -21.2°F-29.6°C 62% 4.0 mph W6.4 kmh W 18.0 mph29.0 kmh 30.09 in1019.0 mb 0.00 in0.0 mm 0.00 in0.0 mm 0.00 in0.0 mm
05:30 PM -12.5°F-24.7°C -22.1°F-30.1°C 61% 4.0 mph WNW6.4 kmh WNW 19.0 mph30.6 kmh 30.10 in1019.3 mb 0.00 in0.0 mm 0.00 in0.0 mm 0.00 in0.0 mm
05:45 PM -13.1°F-25.1°C -22.4°F-30.2°C 62% 2.0 mph WNW3.2 kmh WNW 16.0 mph25.7 kmh 30.10 in1019.3 mb 0.00 in0.0 mm 0.00 in0.0 mm 0.00 in0.0 mm
06:00 PM -13.8°F-25.4°C -22.8°F-30.4°C 63% 4.0 mph WNW6.4 kmh WNW 16.0 mph25.7 kmh 30.11 in1019.6 mb 0.00 in0.0 mm 0.00 in0.0 mm 0.00 in0.0 mm
06:15 PM -14.6°F-25.9°C -23.8°F-31.0°C 62% 6.0 mph WNW9.7 kmh WNW 18.0 mph29.0 kmh 30.11 in1019.6 mb 0.00 in0.0 mm 0.00 in0.0 mm 0.00 in0.0 mm
06:30 PM -15.3°F-26.3°C -24.2°F-31.2°C 63% 3.0 mph NNE4.8 kmh NNE 18.0 mph29.0 kmh 30.12 in1020.0 mb 0.00 in0.0 mm 0.00 in0.0 mm 0.00 in0.0 mm
06:45 PM -15.8°F-26.6°C -24.4°F-31.3°C 64% 7.0 mph WNW11.3 kmh WNW 16.0 mph25.7 kmh 30.13 in1020.3 mb 0.00 in0.0 mm 0.00 in0.0 mm 0.00 in0.0 mm
07:00 PM -16.4°F-26.9°C -24.7°F-31.5°C 65% 3.0 mph WNW4.8 kmh WNW 23.0 mph37.0 kmh 30.14 in1020.7 mb 0.00 in0.0 mm 0.00 in0.0 mm 0.00 in0.0 mm
07:15 PM -17.1°F-27.3°C -25.6°F-32.0°C 64% 4.0 mph NW6.4 kmh NW 19.0 mph30.6 kmh 30.14 in1020.7 mb 0.00 in0.0 mm 0.00 in0.0 mm 0.00 in0.0 mm
07:30 PM -17.5°F-27.5°C -26.0°F-32.2°C 64% 5.0 mph W8.0 kmh W 19.0 mph30.6 kmh 30.15 in1021.0 mb 0.00 in0.0 mm 0.00 in0.0 mm 0.00 in0.0 mm
07:45 PM -17.8°F-27.7°C -25.7°F-32.1°C 66% 2.0 mph NW3.2 kmh NW 13.0 mph20.9 kmh 30.16 in1021.3 mb 0.00 in0.0 mm 0.00 in0.0 mm 0.00 in0.0 mm
08:00 PM -18.2°F-27.9°C -26.4°F-32.4°C 65% 5.0 mph NW8.0 kmh NW 16.0 mph25.7 kmh 30.16 in1021.3 mb 0.00 in0.0 mm 0.00 in0.0 mm 0.00 in0.0 mm
08:15 PM -18.7°F-28.2°C -27.1°F-32.8°C 64% 5.0 mph W8.0 kmh W 21.0 mph33.8 kmh 30.16 in1021.3 mb 0.00 in0.0 mm 0.00 in0.0 mm 0.00 in0.0 mm
08:30 PM -19.2°F-28.4°C -27.6°F-33.1°C 64% 8.0 mph W12.9 kmh W 21.0 mph33.8 kmh 30.17 in1021.7 mb 0.00 in0.0 mm 0.00 in0.0 mm 0.00 in0.0 mm
08:45 PM -19.5°F-28.6°C -27.6°F-33.1°C 65% 5.0 mph NW8.0 kmh NW 16.0 mph25.7 kmh 30.18 in1022.0 mb 0.00 in0.0 mm 0.00 in0.0 mm 0.00 in0.0 mm
09:00 PM -19.7°F-28.7°C -27.5°F-33.1°C 66% 3.0 mph WNW4.8 kmh WNW 16.0 mph25.7 kmh 30.18 in1022.0 mb 0.00 in0.0 mm 0.00 in0.0 mm 0.00 in0.0 mm
09:15 PM -19.9°F-28.8°C -27.7°F-33.2°C 66% 3.0 mph NW4.8 kmh NW 13.0 mph20.9 kmh 30.19 in1022.4 mb 0.00 in0.0 mm 0.00 in0.0 mm 0.00 in0.0 mm
09:30 PM -20.1°F-28.9°C -27.9°F-33.3°C 66% 4.0 mph WNW6.4 kmh WNW 13.0 mph20.9 kmh 30.20 in1022.7 mb 0.00 in0.0 mm 0.00 in0.0 mm 0.00 in0.0 mm
09:45 PM -20.3°F-29.1°C -28.1°F-33.4°C 66% 6.0 mph WNW9.7 kmh WNW 12.0 mph19.3 kmh 30.20 in1022.7 mb 0.00 in0.0 mm 0.00 in0.0 mm 0.00 in0.0 mm
10:00 PM -20.6°F-29.2°C -28.4°F-33.6°C 66% 7.0 mph WNW11.3 kmh WNW 14.0 mph22.5 kmh 30.21 in1023.0 mb 0.00 in0.0 mm 0.00 in0.0 mm 0.00 in0.0 mm
10:15 PM -21.0°F-29.4°C -28.5°F-33.6°C 67% 10.0 mph W16.1 kmh W 16.0 mph25.7 kmh 30.21 in1023.0 mb 0.00 in0.0 mm 0.00 in0.0 mm 0.00 in0.0 mm
10:30 PM -21.2°F-29.6°C -28.4°F-33.6°C 68% 3.0 mph WNW4.8 kmh WNW 16.0 mph25.7 kmh 30.21 in1023.0 mb 0.00 in0.0 mm 0.00 in0.0 mm 0.00 in0.0 mm
10:45 PM -21.4°F-29.7°C -28.4°F-33.6°C 69% 9.0 mph N14.5 kmh N 12.0 mph19.3 kmh 30.22 in1023.4 mb 0.00 in0.0 mm 0.00 in0.0 mm 0.00 in0.0 mm
11:00 PM -21.5°F-29.7°C -28.4°F-33.6°C 69% 8.0 mph WNW12.9 kmh WNW 12.0 mph19.3 kmh 30.22 in1023.4 mb 0.00 in0.0 mm 0.00 in0.0 mm 0.00 in0.0 mm
11:15 PM -21.7°F-29.8°C -28.6°F-33.7°C 69% 3.0 mph WNW4.8 kmh WNW 11.0 mph17.7 kmh 30.23 in1023.7 mb 0.00 in0.0 mm 0.00 in0.0 mm 0.00 in0.0 mm
11:30 PM -21.9°F-29.9°C -28.6°F-33.7°C 70% 5.0 mph WNW8.0 kmh WNW 11.0 mph17.7 kmh 30.23 in1023.7 mb 0.00 in0.0 mm 0.00 in0.0 mm 0.00 in0.0 mm
11:45 PM -22.1°F-30.1°C -29.0°F-33.9°C 69% 8.0 mph WNW12.9 kmh WNW 18.0 mph29.0 kmh 30.23 in1023.7 mb 0.00 in0.0 mm 0.00 in0.0 mm 0.00 in0.0 mm